createdAt,value
2019-02-20T00:01:36.589Z,99748.13
2019-02-20T00:07:41.154Z,99746.05
2019-02-20T00:13:46.051Z,99755.32
2019-02-20T00:19:50.689Z,99754.92
2019-02-20T00:25:55.471Z,99763.95
2019-02-20T00:32:00.441Z,99757.69
2019-02-20T00:38:05.538Z,99764.15
2019-02-20T00:44:14.460Z,99772.30
2019-02-20T00:50:22.304Z,99771.84
2019-02-20T00:56:27.109Z,99773.95
2019-02-20T01:02:32.313Z,99777.78
2019-02-20T01:08:37.006Z,99782.84
2019-02-20T01:14:41.718Z,99780.33
2019-02-20T01:20:46.518Z,99783.12
2019-02-20T01:26:51.219Z,99772.14
2019-02-20T01:32:55.768Z,99773.33
2019-02-20T01:39:00.883Z,99772.34
2019-02-20T01:45:09.549Z,99772.34
2019-02-20T01:51:14.174Z,99775.63
2019-02-20T01:57:18.761Z,99759.98
2019-02-20T02:03:23.593Z,99762.84
2019-02-20T02:09:28.491Z,99763.73
2019-02-20T02:15:34.025Z,99760.70
2019-02-20T02:21:38.582Z,99768.34
2019-02-20T02:27:43.224Z,99769.84
2019-02-20T02:33:47.940Z,99768.03
2019-02-20T02:39:53.357Z,99765.88
2019-02-20T02:45:58.347Z,99755.06
2019-02-20T02:52:03.021Z,99751.23
2019-02-20T02:58:07.964Z,99747.91
2019-02-20T03:04:12.740Z,99753.24
2019-02-20T03:10:17.519Z,99759.05
2019-02-20T03:16:22.329Z,99762.05
2019-02-20T03:22:27.631Z,99752.22
2019-02-20T03:28:32.546Z,99751.03
2019-02-20T03:34:37.323Z,99762.53
2019-02-20T03:40:41.906Z,99762.70
2019-02-20T03:46:46.690Z,99762.72
2019-02-20T03:52:51.519Z,99768.55
2019-02-20T03:58:56.258Z,99775.03
2019-02-20T04:05:01.388Z,99767.73
2019-02-20T04:11:06.184Z,99768.55
2019-02-20T04:17:11.412Z,99766.70
2019-02-20T04:23:16.245Z,99759.70
2019-02-20T04:29:20.963Z,99762.88
2019-02-20T04:35:25.989Z,99764.86
2019-02-20T04:41:31.126Z,99765.36
2019-02-20T04:47:35.896Z,99762.50
2019-02-20T04:53:40.449Z,99767.33
2019-02-20T04:59:45.037Z,99772.16
2019-02-20T05:05:49.713Z,99773.66
2019-02-20T05:11:55.252Z,99773.33
2019-02-20T05:18:00.231Z,99774.32
2019-02-20T05:24:04.930Z,99778.17
2019-02-20T05:30:10.175Z,99773.66
2019-02-20T05:36:14.816Z,99777.52
2019-02-20T05:42:21.149Z,99772.14
2019-02-20T05:48:25.902Z,99779.98
2019-02-20T05:54:34.352Z,99779.84
2019-02-20T06:00:37.372Z,99779.68
2019-02-20T06:06:42.085Z,99788.13
2019-02-20T06:12:46.844Z,99791.45
2019-02-20T06:18:52.311Z,99795.77
2019-02-20T06:24:56.972Z,99798.35
2019-02-20T06:31:01.865Z,99811.80
2019-02-20T06:37:06.719Z,99824.42
2019-02-20T06:43:11.866Z,99823.55
2019-02-20T06:49:16.500Z,99832.64
2019-02-20T06:55:21.073Z,99836.09
2019-02-20T07:01:26.452Z,99843.65
2019-02-20T07:08:08.394Z,99844.41
2019-02-20T07:14:45.884Z,99837.54
2019-02-20T07:21:09.686Z,99856.67
2019-02-20T07:27:24.739Z,99861.41
2019-02-20T07:33:29.435Z,99873.78
2019-02-20T07:39:34.633Z,99879.52
2019-02-20T07:45:39.186Z,99889.91
2019-02-20T07:51:43.759Z,99896.11
2019-02-20T07:57:48.385Z,99898.36
2019-02-20T08:03:52.956Z,99904.60
2019-02-20T08:09:57.521Z,99910.70
2019-02-20T08:16:02.349Z,99916.83
2019-02-20T08:22:08.803Z,99920.66
2019-02-20T08:28:13.651Z,99940.08
2019-02-20T08:34:18.217Z,99945.01
2019-02-20T08:40:22.844Z,99954.69
2019-02-20T08:46:27.543Z,99956.55
2019-02-20T08:52:32.743Z,99961.13
2019-02-20T08:58:37.503Z,99967.31
2019-02-20T09:04:42.150Z,99970.48
2019-02-20T09:10:46.885Z,99973.48
2019-02-20T09:16:51.609Z,99977.16
2019-02-20T09:22:56.215Z,99984.66
2019-02-20T09:29:00.963Z,99983.66
2019-02-20T09:35:07.642Z,99984.47
2019-02-20T09:41:12.412Z,99990.43
2019-02-20T09:47:17.097Z,99986.16
2019-02-20T09:53:21.663Z,99993.72
2019-02-20T09:59:26.519Z,100001.82
2019-02-20T10:05:31.573Z,99996.36
2019-02-20T10:11:36.183Z,100002.17
2019-02-20T10:17:40.821Z,100007.30
2019-02-20T10:23:46.332Z,100007.34
2019-02-20T10:29:50.919Z,100019.11
2019-02-20T10:35:55.777Z,100018.09
2019-02-20T10:42:00.818Z,100027.33
2019-02-20T10:48:05.540Z,100028.19
2019-02-20T10:54:10.737Z,100030.42
2019-02-20T11:00:24.641Z,100035.91
2019-02-20T11:06:30.328Z,100044.14
2019-02-20T11:12:35.037Z,100036.27
2019-02-20T11:18:39.823Z,100030.36
2019-02-20T11:24:44.515Z,100024.33
2019-02-20T11:30:49.080Z,100018.30
2019-02-20T11:36:53.787Z,100026.12
2019-02-20T11:42:59.132Z,100018.11
2019-02-20T11:49:03.926Z,100006.30
2019-02-20T11:55:14.112Z,100016.41
2019-02-20T12:01:18.825Z,100015.13
2019-02-20T12:07:23.523Z,100017.79
2019-02-20T12:13:28.171Z,100018.36
2019-02-20T12:19:33.194Z,100015.02
2019-02-20T12:25:37.951Z,100005.67
2019-02-20T12:31:42.720Z,100014.39
2019-02-20T12:37:47.299Z,100003.81
2019-02-20T12:43:51.994Z,99997.66
2019-02-20T12:49:56.802Z,100003.98
2019-02-20T12:56:09.868Z,100002.28
2019-02-20T13:02:08.741Z,100003.47
2019-02-20T14:00:59.944Z,99981.32
2019-02-20T14:07:04.922Z,99986.88
2019-02-20T14:13:09.851Z,99983.95
2019-02-20T14:19:14.430Z,99985.91
2019-02-20T14:25:19.308Z,99988.91
2019-02-20T14:31:24.128Z,99978.06
2019-02-20T14:37:29.608Z,99978.32
2019-02-20T14:43:34.986Z,99976.92
2019-02-20T14:49:39.659Z,99977.84
2019-02-20T14:55:44.734Z,99984.62
2019-02-20T15:01:49.494Z,99970.34
2019-02-20T15:07:54.135Z,99974.95
2019-02-20T15:13:59.062Z,99976.64
2019-02-20T15:20:04.171Z,99971.05
2019-02-20T15:26:09.390Z,99974.25
2019-02-20T15:32:13.962Z,99977.08
2019-02-20T15:38:18.538Z,99978.27
2019-02-20T15:44:23.429Z,99989.84
2019-02-20T15:50:27.998Z,99988.98
2019-02-20T15:56:32.706Z,99983.73
2019-02-20T16:02:37.344Z,99991.06
2019-02-20T16:08:41.991Z,99997.09
2019-02-20T16:14:46.552Z,99994.39
2019-02-20T16:20:51.297Z,99998.41
2019-02-20T16:26:55.938Z,100004.56
2019-02-20T16:33:01.453Z,100008.66
2019-02-20T16:39:07.261Z,100023.29
2019-02-20T16:45:24.319Z,100018.42
2019-02-20T16:51:29.321Z,100030.27
2019-02-20T16:57:34.172Z,100029.98
2019-02-20T17:03:39.065Z,100032.31
2019-02-20T17:09:44.052Z,100038.72
2019-02-20T17:15:48.770Z,100049.80
2019-02-20T17:21:53.460Z,100061.31
2019-02-20T17:28:05.501Z,100061.31
2019-02-20T17:34:04.919Z,100072.30
2019-02-20T17:40:13.961Z,100072.96
2019-02-20T17:46:18.763Z,100076.14
2019-02-20T17:52:23.497Z,100078.28
2019-02-20T17:58:28.719Z,100081.42
2019-02-20T18:04:35.945Z,100083.71
2019-02-20T18:10:40.382Z,100088.09
2019-02-20T18:16:45.015Z,100097.25
2019-02-20T18:22:49.749Z,100101.77
2019-02-20T18:28:54.313Z,100100.11
2019-02-20T18:34:58.945Z,100095.39
2019-02-20T18:41:04.022Z,100102.76
2019-02-20T18:47:08.661Z,100107.86
2019-02-20T18:53:13.364Z,100108.83
2019-02-20T18:59:17.998Z,100110.55
2019-02-20T19:05:22.722Z,100110.66
2019-02-20T19:11:37.741Z,100116.91
2019-02-20T19:18:15.714Z,100119.67
2019-02-20T19:25:15.180Z,100115.64
2019-02-20T19:31:41.097Z,100119.17
2019-02-20T19:38:09.504Z,100125.57
2019-02-20T19:44:38.446Z,100125.86
2019-02-20T19:51:08.807Z,100125.49
2019-02-20T19:57:39.233Z,100121.53
2019-02-20T20:04:09.103Z,100125.17
2019-02-20T20:10:26.734Z,100122.07
2019-02-20T20:16:52.322Z,100118.07
2019-02-20T20:23:26.875Z,100119.13
2019-02-20T20:30:18.923Z,100129.22
2019-02-20T20:37:14.483Z,100128.25
2019-02-20T20:43:51.623Z,100130.51
2019-02-20T20:50:06.788Z,100134.49
2019-02-20T20:56:43.438Z,100129.67
2019-02-20T21:02:52.763Z,100134.03
2019-02-20T21:09:02.461Z,100128.16
2019-02-20T21:15:31.241Z,100125.92
2019-02-20T21:22:03.041Z,100123.46
2019-02-20T21:28:31.194Z,100126.53
2019-02-20T21:35:01.587Z,100123.03
2019-02-20T21:41:16.669Z,100119.67
2019-02-20T21:47:43.664Z,100117.14
2019-02-20T21:53:59.404Z,100121.00
2019-02-20T22:00:27.890Z,100118.87
2019-02-20T22:06:56.819Z,100128.40
2019-02-20T22:13:27.571Z,100129.66
2019-02-20T22:19:45.636Z,100128.13
2019-02-20T22:26:09.829Z,100134.75
2019-02-20T22:32:43.265Z,100143.66
2019-02-20T22:39:18.110Z,100143.08
2019-02-20T22:45:36.792Z,100140.41
2019-02-20T22:52:04.237Z,100138.75
2019-02-20T22:58:21.796Z,100142.20
2019-02-20T23:04:36.614Z,100141.73
2019-02-20T23:10:54.316Z,100144.89
2019-02-20T23:16:58.986Z,100159.95
2019-02-20T23:23:04.005Z,100163.60
2019-02-20T23:29:08.601Z,100160.30
2019-02-20T23:35:13.350Z,100161.34
2019-02-20T23:41:18.088Z,100175.80
2019-02-20T23:47:22.722Z,100162.47
2019-02-20T23:53:27.310Z,100163.78
2019-02-20T23:59:32.413Z,100170.98
